createdAt,value
2019-04-07T00:00:02.812Z,21.23
2019-04-07T00:02:31.481Z,21.57
2019-04-07T00:05:10.182Z,20.53
2019-04-07T00:07:30.761Z,20.90
2019-04-07T00:09:59.167Z,21.07
2019-04-07T00:12:27.746Z,19.53
2019-04-07T00:14:56.276Z,20.97
2019-04-07T00:17:25.059Z,20.13
2019-04-07T00:19:53.635Z,19.83
2019-04-07T00:22:22.236Z,20.47
2019-04-07T00:24:50.734Z,20.67
2019-04-07T00:27:19.145Z,21.57
2019-04-07T00:29:47.844Z,21.93
2019-04-07T00:32:16.258Z,21.67
2019-04-07T00:34:45.150Z,21.23
2019-04-07T00:37:14.087Z,21.43
2019-04-07T00:39:42.633Z,22.27
2019-04-07T00:42:11.499Z,21.47
2019-04-07T00:44:40.546Z,19.67
2019-04-07T00:47:09.456Z,20.33
2019-04-07T00:49:37.962Z,20.47
2019-04-07T00:52:08.354Z,20.40
2019-04-07T00:54:37.045Z,22.23
2019-04-07T00:57:05.532Z,22.03
2019-04-07T00:59:34.216Z,22.43
2019-04-07T01:02:02.641Z,22.40
2019-04-07T01:04:31.038Z,20.23
2019-04-07T01:06:59.453Z,21.57
2019-04-07T01:09:28.801Z,22.53
2019-04-07T01:11:57.406Z,23.23
2019-04-07T01:14:26.333Z,21.70
2019-04-07T01:16:54.833Z,21.40
2019-04-07T01:19:23.250Z,21.80
2019-04-07T01:21:51.657Z,21.93
2019-04-07T01:24:20.072Z,20.67
2019-04-07T01:26:48.473Z,20.53
2019-04-07T01:29:16.890Z,21.87
2019-04-07T01:31:45.296Z,22.30
2019-04-07T01:34:13.707Z,20.40
2019-04-07T01:36:42.886Z,20.37
2019-04-07T01:39:12.032Z,20.57
2019-04-07T01:41:48.421Z,20.00
2019-04-07T01:44:28.363Z,20.60
2019-04-07T01:46:58.585Z,20.57
2019-04-07T01:49:34.799Z,22.63
2019-04-07T01:52:23.643Z,21.40
2019-04-07T01:54:53.758Z,21.83
2019-04-07T01:57:42.021Z,21.43
2019-04-07T02:00:15.277Z,20.47
2019-04-07T02:02:45.568Z,21.60
2019-04-07T02:05:27.726Z,22.10
2019-04-07T02:08:12.933Z,21.57
2019-04-07T02:10:42.987Z,22.03
2019-04-07T02:13:21.950Z,20.33
2019-04-07T02:15:52.524Z,21.07
2019-04-07T02:18:23.420Z,21.50
2019-04-07T02:21:03.640Z,21.60
2019-04-07T02:23:52.640Z,20.87
2019-04-07T02:26:31.742Z,20.27
2019-04-07T02:29:10.812Z,22.57
2019-04-07T02:31:45.063Z,21.27
2019-04-07T02:34:21.955Z,22.50
2019-04-07T02:36:52.083Z,21.63
2019-04-07T02:39:36.948Z,21.90
2019-04-07T02:42:16.836Z,20.37
2019-04-07T02:44:57.347Z,21.47
2019-04-07T02:47:36.019Z,20.37
2019-04-07T02:50:24.142Z,20.27
2019-04-07T02:53:05.937Z,20.70
2019-04-07T02:55:38.909Z,21.30
2019-04-07T02:58:17.996Z,19.80
2019-04-07T03:00:48.050Z,21.17
2019-04-07T03:03:20.925Z,20.83
2019-04-07T03:05:57.246Z,20.40
2019-04-07T03:08:27.310Z,19.67
2019-04-07T03:10:57.351Z,18.73
2019-04-07T03:13:30.296Z,19.53
2019-04-07T03:16:07.522Z,19.20
2019-04-07T03:18:50.707Z,19.20
2019-04-07T03:21:20.896Z,19.30
2019-04-07T03:23:51.395Z,18.63
2019-04-07T03:26:30.955Z,22.33
2019-04-07T03:29:01.422Z,19.30
2019-04-07T03:31:38.824Z,19.97
2019-04-07T03:34:09.821Z,18.47
2019-04-07T03:37:18.279Z,18.37
2019-04-07T03:39:47.725Z,17.93
2019-04-07T03:42:24.372Z,18.43
2019-04-07T03:45:13.594Z,18.83
2019-04-07T03:47:46.895Z,19.33
2019-04-07T03:50:31.806Z,18.30
2019-04-07T03:53:14.215Z,18.70
2019-04-07T03:55:55.961Z,19.30
2019-04-07T03:58:34.991Z,19.57
2019-04-07T04:01:25.728Z,19.00
2019-04-07T04:04:12.582Z,16.83
2019-04-07T04:06:55.126Z,17.47
2019-04-07T04:09:39.732Z,16.27
2019-04-07T04:12:12.318Z,16.37
2019-04-07T04:14:51.284Z,15.57
2019-04-07T04:17:19.810Z,16.57
2019-04-07T04:19:48.350Z,17.80
2019-04-07T04:22:16.763Z,19.00
2019-04-07T04:24:45.161Z,18.17
2019-04-07T04:27:13.573Z,17.73
2019-04-07T04:29:41.986Z,16.83
2019-04-07T04:32:10.408Z,16.60
2019-04-07T04:34:39.031Z,17.03
2019-04-07T04:37:08.084Z,19.87
2019-04-07T04:39:37.497Z,19.40
2019-04-07T04:42:07.083Z,19.80
2019-04-07T04:44:35.964Z,20.73
2019-04-07T04:47:04.817Z,19.03
2019-04-07T04:49:33.407Z,19.47
2019-04-07T04:52:01.817Z,18.73
2019-04-07T04:54:31.683Z,19.00
2019-04-07T04:57:04.095Z,19.13
2019-04-07T04:59:31.196Z,18.30
2019-04-07T05:02:00.039Z,16.87
2019-04-07T05:04:29.349Z,17.17
2019-04-07T05:06:58.088Z,17.70
2019-04-07T05:09:39.179Z,17.47
2019-04-07T05:11:56.730Z,18.53
2019-04-07T05:14:25.779Z,19.70
2019-04-07T05:16:54.805Z,19.03
2019-04-07T05:19:23.733Z,17.77
2019-04-07T05:21:52.205Z,17.97
2019-04-07T05:24:21.267Z,16.27
2019-04-07T05:26:49.795Z,16.87
2019-04-07T05:29:18.678Z,16.73
2019-04-07T05:31:47.449Z,16.30
2019-04-07T05:34:19.606Z,15.57
2019-04-07T05:36:46.783Z,15.13
2019-04-07T05:39:15.320Z,15.83
2019-04-07T05:41:43.869Z,16.23
2019-04-07T05:44:12.474Z,15.43
2019-04-07T05:46:42.557Z,16.20
2019-04-07T05:49:11.021Z,16.07
2019-04-07T05:51:40.178Z,16.67
2019-04-07T05:54:09.226Z,14.97
2019-04-07T05:56:38.009Z,16.30
2019-04-07T05:59:09.976Z,14.77
2019-04-07T06:01:36.764Z,15.13
2019-04-07T06:04:05.603Z,16.00
2019-04-07T06:06:34.337Z,15.93
2019-04-07T06:09:03.101Z,15.80
2019-04-07T06:11:34.510Z,15.10
2019-04-07T06:14:01.879Z,15.00
2019-04-07T06:16:30.317Z,16.13
2019-04-07T06:18:58.898Z,15.97
2019-04-07T06:21:27.807Z,16.13
2019-04-07T06:23:59.835Z,16.13
2019-04-07T06:26:26.549Z,15.30
2019-04-07T06:28:58.438Z,16.17
2019-04-07T06:31:26.317Z,16.10
2019-04-07T06:33:55.254Z,16.17
2019-04-07T06:36:26.292Z,15.63
2019-04-07T06:38:54.739Z,15.33
2019-04-07T06:41:24.268Z,14.97
2019-04-07T06:43:55.980Z,15.33
2019-04-07T06:46:42.358Z,14.17
2019-04-07T06:49:30.677Z,14.47
2019-04-07T06:52:13.756Z,13.30
2019-04-07T06:54:47.058Z,13.67
2019-04-07T06:57:19.834Z,12.50
2019-04-07T07:00:08.219Z,11.20
2019-04-07T07:02:43.463Z,10.60
2019-04-07T07:05:18.982Z,9.17
2019-04-07T07:07:52.107Z,8.13
2019-04-07T07:10:39.920Z,7.90
2019-04-07T07:13:26.521Z,6.97
2019-04-07T07:15:55.222Z,7.47
2019-04-07T07:18:25.322Z,7.53
2019-04-07T07:21:01.002Z,7.50
2019-04-07T07:23:35.283Z,6.27
2019-04-07T07:26:04.238Z,6.20
2019-04-07T07:28:32.898Z,5.87
2019-04-07T07:31:02.232Z,6.30
2019-04-07T07:33:30.780Z,3.90
2019-04-07T07:35:59.348Z,3.93
2019-04-07T07:38:31.083Z,4.10
2019-04-07T07:41:00.994Z,3.53
2019-04-07T07:43:29.536Z,3.57
2019-04-07T07:45:59.057Z,3.10
2019-04-07T07:48:28.311Z,3.25
2019-04-07T07:50:57.052Z,2.77
2019-04-07T07:53:27.500Z,3.00
2019-04-07T07:55:56.521Z,2.80
2019-04-07T07:58:28.029Z,2.80
2019-04-07T08:00:55.558Z,2.65
2019-04-07T08:03:24.123Z,2.67
2019-04-07T08:05:53.302Z,2.83
2019-04-07T08:08:21.901Z,2.80
2019-04-07T08:10:50.761Z,2.80
2019-04-07T08:13:20.054Z,2.67
2019-04-07T08:15:49.332Z,2.60
2019-04-07T08:18:20.176Z,2.70
2019-04-07T08:20:47.974Z,2.65
2019-04-07T08:23:16.377Z,2.67
2019-04-07T08:25:45.459Z,2.90
2019-04-07T08:28:14.638Z,2.42
2019-04-07T08:30:47.194Z,2.72
2019-04-07T08:33:13.412Z,2.67
2019-04-07T08:35:42.649Z,2.42
2019-04-07T08:38:12.233Z,2.17
2019-04-07T08:40:40.719Z,2.20
2019-04-07T08:43:09.226Z,2.30
2019-04-07T08:45:39.751Z,2.45
2019-04-07T08:48:08.979Z,2.40
2019-04-07T08:50:37.510Z,2.72
2019-04-07T08:53:05.909Z,2.30
2019-04-07T08:55:34.561Z,2.85
2019-04-07T08:58:04.676Z,2.40
2019-04-07T09:00:34.893Z,2.40
2019-04-07T09:03:10.473Z,2.40
2019-04-07T09:05:33.536Z,2.33
2019-04-07T09:08:05.525Z,1.92
2019-04-07T09:10:37.162Z,2.17
2019-04-07T09:13:08.474Z,2.00
2019-04-07T09:15:40.819Z,2.27
2019-04-07T09:18:24.464Z,2.33
2019-04-07T09:20:54.662Z,1.72
2019-04-07T09:23:28.332Z,2.12
2019-04-07T09:26:10.413Z,1.80
2019-04-07T09:28:53.386Z,1.98
2019-04-07T09:31:23.305Z,2.15
2019-04-07T09:33:56.251Z,2.22
2019-04-07T09:36:26.538Z,2.10
2019-04-07T09:39:14.540Z,2.27
2019-04-07T09:41:45.088Z,2.10
2019-04-07T09:44:27.847Z,2.10
2019-04-07T09:47:06.890Z,1.80
2019-04-07T09:49:40.298Z,1.85
2019-04-07T09:52:16.873Z,2.00
2019-04-07T09:54:51.686Z,2.20
2019-04-07T09:57:38.645Z,1.95
2019-04-07T10:00:12.651Z,2.20
2019-04-07T10:02:54.809Z,2.10
2019-04-07T10:05:41.038Z,2.35
2019-04-07T10:08:13.603Z,3.80
2019-04-07T10:10:43.602Z,3.00
2019-04-07T10:13:19.676Z,2.27
2019-04-07T10:15:56.323Z,2.10
2019-04-07T10:18:26.573Z,2.10
2019-04-07T10:21:15.661Z,1.87
2019-04-07T10:23:48.701Z,2.27
2019-04-07T10:26:23.333Z,2.02
2019-04-07T10:28:54.145Z,2.12
2019-04-07T10:31:30.557Z,1.82
2019-04-07T10:34:00.718Z,2.30
2019-04-07T10:36:36.499Z,2.27
2019-04-07T10:39:20.909Z,2.33
2019-04-07T10:42:07.498Z,2.17
2019-04-07T10:44:40.525Z,2.22
2019-04-07T10:47:27.853Z,2.33
2019-04-07T10:50:03.993Z,2.15
2019-04-07T10:52:29.850Z,2.22
2019-04-07T10:55:18.029Z,2.22
2019-04-07T10:57:48.188Z,1.95
2019-04-07T11:00:27.813Z,2.08
2019-04-07T11:02:58.102Z,1.85
2019-04-07T11:05:44.765Z,2.00
2019-04-07T11:08:20.963Z,2.40
2019-04-07T11:10:56.717Z,2.00
2019-04-07T11:13:36.141Z,2.50
2019-04-07T11:16:06.372Z,1.90
2019-04-07T11:18:42.822Z,2.30
2019-04-07T11:21:18.675Z,2.25
2019-04-07T11:23:49.104Z,2.60
2019-04-07T11:26:25.416Z,2.05
2019-04-07T11:28:58.227Z,2.35
2019-04-07T11:31:31.059Z,2.00
2019-04-07T11:34:11.068Z,2.02
2019-04-07T11:36:49.895Z,2.25
2019-04-07T11:39:20.053Z,2.33
2019-04-07T11:41:53.086Z,2.05
2019-04-07T11:44:29.316Z,1.60
2019-04-07T11:47:17.545Z,2.10
2019-04-07T11:49:48.511Z,1.87
2019-04-07T11:52:21.349Z,1.80
2019-04-07T11:55:10.171Z,2.00
2019-04-07T11:57:45.121Z,2.15
2019-04-07T12:00:31.866Z,2.27
2019-04-07T12:03:24.706Z,2.25
2019-04-07T12:06:07.594Z,2.15
2019-04-07T12:08:46.806Z,2.15
2019-04-07T12:11:33.018Z,1.92
2019-04-07T12:14:06.308Z,2.12
2019-04-07T12:16:49.188Z,2.10
2019-04-07T12:19:26.153Z,2.30
2019-04-07T12:21:56.321Z,2.50
2019-04-07T12:24:30.632Z,2.12
2019-04-07T12:27:12.204Z,2.30
2019-04-07T12:29:47.730Z,2.30
2019-04-07T12:32:23.924Z,2.20
2019-04-07T12:34:57.229Z,2.37
2019-04-07T12:37:39.242Z,1.83
2019-04-07T12:40:09.291Z,2.10
2019-04-07T12:42:58.080Z,2.20
2019-04-07T12:45:43.840Z,2.20
2019-04-07T12:48:32.088Z,2.17
2019-04-07T12:51:19.968Z,2.27
2019-04-07T12:53:50.142Z,2.50
2019-04-07T12:56:20.270Z,2.20
2019-04-07T12:58:53.085Z,2.20
2019-04-07T13:01:27.005Z,2.05
2019-04-07T13:04:00.216Z,2.50
2019-04-07T13:06:42.389Z,2.43
2019-04-07T13:09:14.997Z,2.30
2019-04-07T13:11:48.455Z,2.13
2019-04-07T13:14:24.589Z,2.37
2019-04-07T13:16:56.441Z,2.00
2019-04-07T13:19:29.572Z,2.17
2019-04-07T13:22:16.390Z,2.33
2019-04-07T13:24:48.490Z,2.00
2019-04-07T13:27:18.317Z,1.90
2019-04-07T13:29:48.353Z,1.80
2019-04-07T13:32:21.832Z,2.07
2019-04-07T13:34:51.975Z,2.03
2019-04-07T13:37:22.038Z,2.27
2019-04-07T13:39:52.351Z,1.77
2019-04-07T13:42:26.638Z,2.03
2019-04-07T13:45:02.497Z,1.87
2019-04-07T13:47:42.082Z,1.77
2019-04-07T13:50:16.474Z,1.87
2019-04-07T13:52:56.102Z,2.20
2019-04-07T13:55:41.132Z,1.83
2019-04-07T13:58:08.477Z,1.83
2019-04-07T14:00:48.266Z,1.70
2019-04-07T14:03:37.121Z,1.90
2019-04-07T14:06:11.259Z,2.20
2019-04-07T14:08:41.698Z,1.97
2019-04-07T14:11:28.470Z,2.30
2019-04-07T14:13:59.178Z,1.70
2019-04-07T14:16:46.423Z,1.97
2019-04-07T14:19:35.378Z,2.10
2019-04-07T14:22:15.495Z,2.20
2019-04-07T14:24:46.121Z,1.90
2019-04-07T14:27:16.335Z,1.90
2019-04-07T14:32:27.337Z,2.10
2019-04-07T14:35:04.169Z,2.00
2019-04-07T14:37:51.268Z,2.00
2019-04-07T14:40:40.976Z,1.90
2019-04-07T14:43:17.752Z,2.13
2019-04-07T14:45:51.489Z,2.20
2019-04-07T14:48:37.511Z,1.93
2019-04-07T14:51:07.798Z,2.17
2019-04-07T14:53:38.001Z,2.17
2019-04-07T14:56:20.669Z,1.77
2019-04-07T14:59:02.950Z,1.93
2019-04-07T15:01:35.841Z,1.83
2019-04-07T15:04:05.138Z,1.83
2019-04-07T15:06:34.934Z,2.00
2019-04-07T15:09:08.140Z,2.00
2019-04-07T15:11:42.234Z,2.03
2019-04-07T15:14:12.232Z,2.07
2019-04-07T15:16:40.885Z,1.73
2019-04-07T15:19:09.588Z,4.83
2019-04-07T15:21:38.179Z,3.70
2019-04-07T15:24:08.447Z,2.50
2019-04-07T15:26:37.856Z,2.30
2019-04-07T15:29:09.297Z,2.40
2019-04-07T15:31:37.424Z,2.17
2019-04-07T15:34:09.252Z,2.40
2019-04-07T15:36:36.405Z,2.50
2019-04-07T15:39:08.011Z,2.23
2019-04-07T15:41:37.193Z,2.00
2019-04-07T15:44:08.933Z,2.20
2019-04-07T15:46:36.637Z,2.10
2019-04-07T15:49:06.710Z,2.20
2019-04-07T15:51:36.179Z,2.23
2019-04-07T15:54:04.832Z,2.17
2019-04-07T15:56:33.662Z,2.30
2019-04-07T15:59:02.387Z,2.13
2019-04-07T16:01:31.468Z,2.17
2019-04-07T16:04:00.040Z,2.40
2019-04-07T16:06:28.449Z,2.30
2019-04-07T16:08:59.584Z,8.97
2019-04-07T16:11:29.361Z,5.47
2019-04-07T16:13:57.122Z,3.43
2019-04-07T16:16:28.470Z,2.50
2019-04-07T16:18:55.664Z,2.30
2019-04-07T16:21:24.173Z,3.27
2019-04-07T16:23:54.190Z,3.30
2019-04-07T16:26:22.783Z,2.70
2019-04-07T16:28:51.932Z,2.70
2019-04-07T16:31:24.239Z,2.50
2019-04-07T16:33:50.637Z,2.23
2019-04-07T16:36:19.645Z,2.73
2019-04-07T16:38:48.099Z,2.57
2019-04-07T16:41:16.755Z,2.90
2019-04-07T16:43:45.860Z,2.70
2019-04-07T16:46:20.234Z,2.50
2019-04-07T16:48:45.112Z,6.73
2019-04-07T16:51:13.582Z,3.10
2019-04-07T16:53:43.105Z,2.60
2019-04-07T16:56:12.172Z,2.80
2019-04-07T16:58:41.534Z,2.60
2019-04-07T17:01:10.994Z,2.60
2019-04-07T17:03:39.793Z,2.73
2019-04-07T17:06:11.063Z,2.63
2019-04-07T17:08:39.104Z,4.17
2019-04-07T17:11:08.135Z,3.00
2019-04-07T17:13:41.280Z,2.80
2019-04-07T17:16:10.106Z,2.60
2019-04-07T17:18:39.046Z,2.47
2019-04-07T17:21:12.624Z,2.37
2019-04-07T17:23:40.837Z,2.50
2019-04-07T17:26:09.678Z,2.60
2019-04-07T17:28:38.901Z,2.77
2019-04-07T17:31:07.887Z,2.57
2019-04-07T17:33:37.944Z,2.70
2019-04-07T17:36:06.611Z,2.70
2019-04-07T17:38:36.658Z,2.70
2019-04-07T17:41:07.982Z,2.63
2019-04-07T17:43:52.009Z,2.80
2019-04-07T17:46:34.004Z,2.90
2019-04-07T17:49:23.384Z,2.77
2019-04-07T17:52:11.212Z,3.33
2019-04-07T17:54:52.566Z,3.07
2019-04-07T17:57:22.570Z,3.20
2019-04-07T18:00:09.865Z,3.70
2019-04-07T18:02:53.904Z,3.63
2019-04-07T18:05:22.034Z,3.33
2019-04-07T18:08:10.187Z,2.87
2019-04-07T18:10:57.983Z,2.70
2019-04-07T18:13:49.317Z,3.60
2019-04-07T18:16:26.926Z,5.40
2019-04-07T18:18:59.314Z,4.57
2019-04-07T18:21:44.819Z,3.33
2019-04-07T18:24:18.094Z,3.10
2019-04-07T18:26:48.260Z,2.57
2019-04-07T18:29:29.928Z,2.80
2019-04-07T18:32:02.437Z,3.63
2019-04-07T18:34:38.525Z,3.17
2019-04-07T18:37:18.004Z,3.20
2019-04-07T18:39:52.373Z,3.17
2019-04-07T18:42:26.128Z,2.90
2019-04-07T18:44:56.281Z,3.00
2019-04-07T18:47:32.289Z,3.00
2019-04-07T18:50:09.067Z,3.00
2019-04-07T18:52:55.282Z,2.70
2019-04-07T18:55:26.126Z,4.27
2019-04-07T18:57:58.506Z,3.63
2019-04-07T19:00:32.471Z,2.97
2019-04-07T19:03:02.661Z,3.00
2019-04-07T19:05:34.281Z,3.13
2019-04-07T19:08:04.502Z,3.17
2019-04-07T19:10:34.586Z,3.07
2019-04-07T19:13:26.744Z,2.70
2019-04-07T19:16:15.482Z,3.07
2019-04-07T19:18:45.554Z,3.70
2019-04-07T19:21:27.956Z,3.60
2019-04-07T19:24:09.086Z,3.40
2019-04-07T19:26:49.980Z,3.27
2019-04-07T19:29:22.007Z,3.90
2019-04-07T19:31:55.508Z,3.80
2019-04-07T19:34:41.809Z,4.30
2019-04-07T19:37:28.542Z,4.43
2019-04-07T19:40:02.913Z,4.07
2019-04-07T19:42:37.683Z,3.60
2019-04-07T19:45:15.494Z,3.63
2019-04-07T19:47:51.781Z,3.03
2019-04-07T19:50:28.640Z,3.50
2019-04-07T19:53:09.995Z,2.83
2019-04-07T19:55:54.613Z,3.10
2019-04-07T19:58:40.924Z,3.27
2019-04-07T20:01:16.965Z,3.30
2019-04-07T20:03:49.942Z,3.63
2019-04-07T20:06:23.063Z,4.43
2019-04-07T20:09:07.669Z,3.80
2019-04-07T20:11:51.451Z,3.60
2019-04-07T20:14:30.641Z,3.37
2019-04-07T20:17:04.167Z,2.93
2019-04-07T20:19:41.403Z,3.20
2019-04-07T20:22:22.700Z,3.13
2019-04-07T20:25:13.272Z,3.30
2019-04-07T20:27:47.021Z,3.53
2019-04-07T20:30:17.586Z,3.50
2019-04-07T20:32:51.255Z,3.53
2019-04-07T20:35:21.398Z,3.50
2019-04-07T20:37:56.749Z,3.37
2019-04-07T20:40:29.488Z,3.53
2019-04-07T20:43:21.955Z,3.27
2019-04-07T20:46:02.462Z,3.70
2019-04-07T20:48:36.937Z,3.30
2019-04-07T20:51:17.458Z,3.70
2019-04-07T20:53:59.827Z,3.23
2019-04-07T20:56:31.444Z,3.40
2019-04-07T20:59:19.176Z,3.60
2019-04-07T21:02:09.450Z,3.87
2019-04-07T21:04:54.954Z,4.03
2019-04-07T21:07:31.325Z,4.30
2019-04-07T21:10:09.526Z,4.43
2019-04-07T21:12:55.109Z,4.63
2019-04-07T21:15:30.395Z,4.73
2019-04-07T21:18:00.197Z,5.00
2019-04-07T21:20:33.031Z,4.90
2019-04-07T21:23:09.197Z,5.20
2019-04-07T21:25:56.947Z,4.90
2019-04-07T21:28:43.853Z,5.23
2019-04-07T21:31:17.477Z,4.97
2019-04-07T21:33:55.868Z,4.50
2019-04-07T21:36:32.922Z,4.50
2019-04-07T21:39:09.875Z,4.60
2019-04-07T21:41:45.131Z,4.70
2019-04-07T21:44:30.499Z,4.73
2019-04-07T21:47:04.236Z,5.23
2019-04-07T21:49:43.944Z,5.83
2019-04-07T21:52:22.879Z,4.50
2019-04-07T21:54:54.548Z,5.30
2019-04-07T21:57:34.300Z,4.97
2019-04-07T22:00:04.961Z,5.07
2019-04-07T22:02:50.293Z,4.87
2019-04-07T22:05:24.025Z,4.87
2019-04-07T22:07:55.650Z,5.13
2019-04-07T22:10:24.292Z,4.80
2019-04-07T22:12:52.762Z,4.53
2019-04-07T22:15:21.169Z,4.47
2019-04-07T22:17:49.578Z,5.27
2019-04-07T22:20:20.122Z,4.63
2019-04-07T22:22:48.195Z,5.13
2019-04-07T22:25:20.659Z,5.63
2019-04-07T22:27:49.162Z,4.93
2019-04-07T22:30:18.582Z,5.03
2019-04-07T22:32:50.798Z,5.13
2019-04-07T22:35:17.454Z,5.57
2019-04-07T22:37:48.307Z,5.40
2019-04-07T22:40:19.530Z,6.13
2019-04-07T22:42:48.888Z,5.60
2019-04-07T22:45:17.759Z,5.53
2019-04-07T22:47:46.656Z,5.83
2019-04-07T22:50:15.593Z,5.90
2019-04-07T22:52:47.336Z,5.50
2019-04-07T22:55:14.390Z,6.00
2019-04-07T22:57:43.023Z,5.60
2019-04-07T23:00:14.921Z,5.00
2019-04-07T23:02:44.270Z,5.50
2019-04-07T23:05:13.009Z,5.13
2019-04-07T23:07:41.414Z,5.13
2019-04-07T23:10:09.993Z,5.60
2019-04-07T23:12:40.831Z,6.00
2019-04-07T23:15:09.533Z,5.30
2019-04-07T23:17:37.942Z,5.40
2019-04-07T23:20:07.093Z,5.53
2019-04-07T23:22:36.173Z,5.37
2019-04-07T23:25:05.928Z,5.17
2019-04-07T23:27:34.338Z,5.47
2019-04-07T23:30:03.250Z,5.17
2019-04-07T23:32:31.865Z,5.70
2019-04-07T23:35:00.282Z,6.27
2019-04-07T23:37:28.717Z,5.67
2019-04-07T23:39:58.029Z,5.37
2019-04-07T23:42:26.614Z,6.00
2019-04-07T23:44:55.188Z,6.60
2019-04-07T23:47:23.714Z,5.90
2019-04-07T23:49:52.289Z,6.00
2019-04-07T23:52:20.777Z,5.97
2019-04-07T23:54:49.186Z,5.83
2019-04-07T23:57:17.758Z,6.57
2019-04-07T23:59:47.055Z,6.33
